sensor_id;sensor_type;location;lat;lon;timestamp;P1;durP1;ratioP1;P2;durP2;ratioP2
49858;SDS011;35756;52.346;13.622;2023-08-06T00:01:35;10.38;;;6.82;;
49858;SDS011;35756;52.346;13.622;2023-08-06T00:04:00;8.07;;;5.22;;
49858;SDS011;35756;52.346;13.622;2023-08-06T00:06:26;9.75;;;6.22;;
49858;SDS011;35756;52.346;13.622;2023-08-06T00:08:51;7.10;;;5.50;;
49858;SDS011;35756;52.346;13.622;2023-08-06T00:11:16;6.95;;;4.90;;
49858;SDS011;35756;52.346;13.622;2023-08-06T00:13:41;8.40;;;5.20;;
49858;SDS011;35756;52.346;13.622;2023-08-06T00:16:13;6.40;;;4.75;;
49858;SDS011;35756;52.346;13.622;2023-08-06T00:18:38;9.07;;;5.60;;
49858;SDS011;35756;52.346;13.622;2023-08-06T00:21:04;8.10;;;4.97;;
49858;SDS011;35756;52.346;13.622;2023-08-06T00:23:29;6.15;;;4.40;;
49858;SDS011;35756;52.346;13.622;2023-08-06T00:25:55;7.20;;;5.07;;
49858;SDS011;35756;52.346;13.622;2023-08-06T00:28:20;8.48;;;5.68;;
49858;SDS011;35756;52.346;13.622;2023-08-06T00:30:45;8.23;;;5.75;;
49858;SDS011;35756;52.346;13.622;2023-08-06T00:33:11;8.27;;;5.07;;
49858;SDS011;35756;52.346;13.622;2023-08-06T00:35:36;6.68;;;4.68;;
49858;SDS011;35756;52.346;13.622;2023-08-06T00:38:02;7.03;;;4.78;;
49858;SDS011;35756;52.346;13.622;2023-08-06T00:40:27;8.95;;;5.40;;
49858;SDS011;35756;52.346;13.622;2023-08-06T00:42:55;9.63;;;5.70;;
49858;SDS011;35756;52.346;13.622;2023-08-06T00:45:20;7.38;;;5.20;;
49858;SDS011;35756;52.346;13.622;2023-08-06T00:47:45;6.07;;;4.80;;
49858;SDS011;35756;52.346;13.622;2023-08-06T00:50:11;7.03;;;4.95;;
49858;SDS011;35756;52.346;13.622;2023-08-06T00:52:37;7.03;;;5.07;;
49858;SDS011;35756;52.346;13.622;2023-08-06T00:55:02;7.40;;;5.30;;
49858;SDS011;35756;52.346;13.622;2023-08-06T00:57:28;6.22;;;4.82;;
49858;SDS011;35756;52.346;13.622;2023-08-06T00:59:53;6.90;;;4.85;;
49858;SDS011;35756;52.346;13.622;2023-08-06T01:02:19;6.45;;;4.80;;
49858;SDS011;35756;52.346;13.622;2023-08-06T01:04:44;8.15;;;5.55;;
49858;SDS011;35756;52.346;13.622;2023-08-06T01:07:14;9.10;;;5.45;;
49858;SDS011;35756;52.346;13.622;2023-08-06T01:10:15;7.45;;;4.78;;
49858;SDS011;35756;52.346;13.622;2023-08-06T01:12:52;7.50;;;5.15;;
49858;SDS011;35756;52.346;13.622;2023-08-06T01:15:28;5.80;;;4.65;;
49858;SDS011;35756;52.346;13.622;2023-08-06T01:17:54;8.88;;;5.40;;
49858;SDS011;35756;52.346;13.622;2023-08-06T01:20:19;7.72;;;5.53;;
49858;SDS011;35756;52.346;13.622;2023-08-06T01:22:45;7.75;;;5.35;;
49858;SDS011;35756;52.346;13.622;2023-08-06T01:25:10;6.32;;;4.88;;
49858;SDS011;35756;52.346;13.622;2023-08-06T01:30:12;7.43;;;5.00;;
49858;SDS011;35756;52.346;13.622;2023-08-06T01:32:42;6.65;;;4.43;;
49858;SDS011;35756;52.346;13.622;2023-08-06T01:35:08;6.75;;;4.75;;
49858;SDS011;35756;52.346;13.622;2023-08-06T01:37:35;8.10;;;4.80;;
49858;SDS011;35756;52.346;13.622;2023-08-06T01:40:01;6.20;;;4.25;;
49858;SDS011;35756;52.346;13.622;2023-08-06T01:42:31;7.95;;;4.38;;
49858;SDS011;35756;52.346;13.622;2023-08-06T01:44:56;7.80;;;4.22;;
49858;SDS011;35756;52.346;13.622;2023-08-06T01:47:21;7.60;;;5.20;;
49858;SDS011;35756;52.346;13.622;2023-08-06T01:49:47;6.72;;;4.65;;
49858;SDS011;35756;52.346;13.622;2023-08-06T01:52:12;7.75;;;4.43;;
49858;SDS011;35756;52.346;13.622;2023-08-06T01:54:37;7.20;;;4.57;;
49858;SDS011;35756;52.346;13.622;2023-08-06T01:57:03;6.60;;;4.88;;
49858;SDS011;35756;52.346;13.622;2023-08-06T01:59:28;7.05;;;5.00;;
49858;SDS011;35756;52.346;13.622;2023-08-06T02:01:53;7.05;;;5.13;;
49858;SDS011;35756;52.346;13.622;2023-08-06T02:04:19;9.18;;;4.78;;
49858;SDS011;35756;52.346;13.622;2023-08-06T02:06:44;7.82;;;4.68;;
49858;SDS011;35756;52.346;13.622;2023-08-06T02:09:09;6.50;;;4.35;;
49858;SDS011;35756;52.346;13.622;2023-08-06T02:11:35;9.23;;;4.97;;
49858;SDS011;35756;52.346;13.622;2023-08-06T02:14:00;7.70;;;4.38;;
49858;SDS011;35756;52.346;13.622;2023-08-06T02:16:25;6.05;;;4.32;;
49858;SDS011;35756;52.346;13.622;2023-08-06T02:18:50;6.72;;;4.90;;
49858;SDS011;35756;52.346;13.622;2023-08-06T02:21:16;7.05;;;4.32;;
49858;SDS011;35756;52.346;13.622;2023-08-06T02:23:41;6.68;;;4.53;;
49858;SDS011;35756;52.346;13.622;2023-08-06T02:26:06;7.40;;;4.80;;
49858;SDS011;35756;52.346;13.622;2023-08-06T02:28:32;5.68;;;4.05;;
49858;SDS011;35756;52.346;13.622;2023-08-06T02:30:57;6.43;;;4.40;;
49858;SDS011;35756;52.346;13.622;2023-08-06T02:33:22;5.88;;;4.15;;
49858;SDS011;35756;52.346;13.622;2023-08-06T02:35:48;5.85;;;3.95;;
49858;SDS011;35756;52.346;13.622;2023-08-06T02:38:13;5.40;;;3.85;;
49858;SDS011;35756;52.346;13.622;2023-08-06T02:40:45;8.02;;;4.32;;
49858;SDS011;35756;52.346;13.622;2023-08-06T02:43:10;5.03;;;3.60;;
49858;SDS011;35756;52.346;13.622;2023-08-06T02:45:36;7.88;;;4.00;;
49858;SDS011;35756;52.346;13.622;2023-08-06T02:48:01;6.85;;;3.83;;
49858;SDS011;35756;52.346;13.622;2023-08-06T02:50:27;4.28;;;3.33;;
49858;SDS011;35756;52.346;13.622;2023-08-06T02:52:52;5.97;;;3.80;;
49858;SDS011;35756;52.346;13.622;2023-08-06T02:55:18;5.47;;;4.00;;
49858;SDS011;35756;52.346;13.622;2023-08-06T02:57:43;6.75;;;3.83;;
49858;SDS011;35756;52.346;13.622;2023-08-06T03:00:08;7.40;;;3.97;;
49858;SDS011;35756;52.346;13.622;2023-08-06T03:02:34;6.90;;;3.72;;
49858;SDS011;35756;52.346;13.622;2023-08-06T03:04:59;6.63;;;3.60;;
49858;SDS011;35756;52.346;13.622;2023-08-06T03:07:24;11.00;;;4.07;;
49858;SDS011;35756;52.346;13.622;2023-08-06T03:09:49;6.88;;;4.32;;
49858;SDS011;35756;52.346;13.622;2023-08-06T03:12:15;5.57;;;3.67;;
49858;SDS011;35756;52.346;13.622;2023-08-06T03:14:40;4.70;;;3.28;;
49858;SDS011;35756;52.346;13.622;2023-08-06T03:17:05;4.95;;;3.17;;
49858;SDS011;35756;52.346;13.622;2023-08-06T03:19:31;5.95;;;3.13;;
49858;SDS011;35756;52.346;13.622;2023-08-06T03:21:56;5.35;;;3.55;;
49858;SDS011;35756;52.346;13.622;2023-08-06T03:24:21;6.05;;;3.72;;
49858;SDS011;35756;52.346;13.622;2023-08-06T03:26:47;4.50;;;3.17;;
49858;SDS011;35756;52.346;13.622;2023-08-06T03:29:12;5.35;;;3.40;;
49858;SDS011;35756;52.346;13.622;2023-08-06T03:31:37;5.50;;;3.42;;
49858;SDS011;35756;52.346;13.622;2023-08-06T03:34:02;7.15;;;3.58;;
49858;SDS011;35756;52.346;13.622;2023-08-06T03:36:28;4.60;;;3.13;;
49858;SDS011;35756;52.346;13.622;2023-08-06T03:38:53;5.35;;;3.63;;
49858;SDS011;35756;52.346;13.622;2023-08-06T03:41:18;4.95;;;3.63;;
49858;SDS011;35756;52.346;13.622;2023-08-06T03:43:44;6.28;;;3.63;;
49858;SDS011;35756;52.346;13.622;2023-08-06T03:46:09;4.45;;;3.30;;
49858;SDS011;35756;52.346;13.622;2023-08-06T03:48:34;6.57;;;3.67;;
49858;SDS011;35756;52.346;13.622;2023-08-06T03:50:59;4.88;;;3.22;;
49858;SDS011;35756;52.346;13.622;2023-08-06T03:53:26;4.80;;;3.28;;
49858;SDS011;35756;52.346;13.622;2023-08-06T03:55:52;5.63;;;3.63;;
49858;SDS011;35756;52.346;13.622;2023-08-06T03:58:17;5.28;;;3.40;;
49858;SDS011;35756;52.346;13.622;2023-08-06T04:00:42;6.38;;;3.58;;
49858;SDS011;35756;52.346;13.622;2023-08-06T04:03:08;5.47;;;3.95;;
49858;SDS011;35756;52.346;13.622;2023-08-06T04:05:33;6.50;;;4.13;;
49858;SDS011;35756;52.346;13.622;2023-08-06T04:07:58;4.97;;;3.63;;
49858;SDS011;35756;52.346;13.622;2023-08-06T04:10:24;5.32;;;3.13;;
49858;SDS011;35756;52.346;13.622;2023-08-06T04:12:50;4.70;;;3.47;;
49858;SDS011;35756;52.346;13.622;2023-08-06T04:15:15;5.93;;;3.60;;
49858;SDS011;35756;52.346;13.622;2023-08-06T04:17:40;4.90;;;3.42;;
49858;SDS011;35756;52.346;13.622;2023-08-06T04:20:06;5.68;;;3.40;;
49858;SDS011;35756;52.346;13.622;2023-08-06T04:22:31;5.45;;;3.92;;
49858;SDS011;35756;52.346;13.622;2023-08-06T04:24:56;6.55;;;4.30;;
49858;SDS011;35756;52.346;13.622;2023-08-06T04:27:22;5.82;;;3.53;;
49858;SDS011;35756;52.346;13.622;2023-08-06T04:29:47;5.32;;;4.10;;
49858;SDS011;35756;52.346;13.622;2023-08-06T04:32:12;6.38;;;4.55;;
49858;SDS011;35756;52.346;13.622;2023-08-06T04:34:38;8.20;;;4.85;;
49858;SDS011;35756;52.346;13.622;2023-08-06T04:37:03;7.68;;;4.07;;
49858;SDS011;35756;52.346;13.622;2023-08-06T04:39:29;5.10;;;3.70;;
49858;SDS011;35756;52.346;13.622;2023-08-06T04:41:55;6.55;;;3.95;;
49858;SDS011;35756;52.346;13.622;2023-08-06T04:44:21;4.95;;;3.35;;
49858;SDS011;35756;52.346;13.622;2023-08-06T04:46:46;4.43;;;3.17;;
49858;SDS011;35756;52.346;13.622;2023-08-06T04:49:11;5.35;;;3.58;;
49858;SDS011;35756;52.346;13.622;2023-08-06T04:51:37;4.95;;;3.20;;
49858;SDS011;35756;52.346;13.622;2023-08-06T04:54:02;6.72;;;3.72;;
49858;SDS011;35756;52.346;13.622;2023-08-06T04:56:27;4.88;;;3.25;;
49858;SDS011;35756;52.346;13.622;2023-08-06T04:58:53;5.28;;;3.67;;
49858;SDS011;35756;52.346;13.622;2023-08-06T05:01:18;5.13;;;3.90;;
49858;SDS011;35756;52.346;13.622;2023-08-06T05:03:43;4.95;;;3.42;;
49858;SDS011;35756;52.346;13.622;2023-08-06T05:06:09;5.50;;;4.03;;
49858;SDS011;35756;52.346;13.622;2023-08-06T05:08:34;5.78;;;3.95;;
49858;SDS011;35756;52.346;13.622;2023-08-06T05:10:59;4.82;;;3.45;;
49858;SDS011;35756;52.346;13.622;2023-08-06T05:13:25;6.82;;;4.25;;
49858;SDS011;35756;52.346;13.622;2023-08-06T05:15:50;4.97;;;3.50;;
49858;SDS011;35756;52.346;13.622;2023-08-06T05:18:15;5.38;;;3.97;;
49858;SDS011;35756;52.346;13.622;2023-08-06T05:20:41;5.50;;;3.58;;
49858;SDS011;35756;52.346;13.622;2023-08-06T05:23:07;5.75;;;3.80;;
49858;SDS011;35756;52.346;13.622;2023-08-06T05:25:34;6.35;;;4.28;;
49858;SDS011;35756;52.346;13.622;2023-08-06T05:27:59;6.18;;;4.00;;
49858;SDS011;35756;52.346;13.622;2023-08-06T05:30:26;6.78;;;4.22;;
49858;SDS011;35756;52.346;13.622;2023-08-06T05:32:51;6.57;;;4.35;;
49858;SDS011;35756;52.346;13.622;2023-08-06T05:35:17;6.63;;;4.20;;
49858;SDS011;35756;52.346;13.622;2023-08-06T05:37:42;5.93;;;4.10;;
49858;SDS011;35756;52.346;13.622;2023-08-06T05:40:07;5.68;;;4.10;;
49858;SDS011;35756;52.346;13.622;2023-08-06T05:42:33;6.68;;;4.35;;
49858;SDS011;35756;52.346;13.622;2023-08-06T05:44:58;4.90;;;3.80;;
49858;SDS011;35756;52.346;13.622;2023-08-06T05:47:23;6.20;;;4.13;;
49858;SDS011;35756;52.346;13.622;2023-08-06T05:49:49;6.53;;;4.70;;
49858;SDS011;35756;52.346;13.622;2023-08-06T05:52:14;7.03;;;4.15;;
49858;SDS011;35756;52.346;13.622;2023-08-06T05:54:39;6.57;;;4.43;;
49858;SDS011;35756;52.346;13.622;2023-08-06T05:57:05;6.50;;;4.05;;
49858;SDS011;35756;52.346;13.622;2023-08-06T05:59:31;6.57;;;4.22;;
49858;SDS011;35756;52.346;13.622;2023-08-06T06:01:56;7.72;;;4.47;;
49858;SDS011;35756;52.346;13.622;2023-08-06T06:04:21;6.43;;;4.57;;
49858;SDS011;35756;52.346;13.622;2023-08-06T06:06:46;7.63;;;5.13;;
49858;SDS011;35756;52.346;13.622;2023-08-06T06:09:12;7.80;;;4.95;;
49858;SDS011;35756;52.346;13.622;2023-08-06T06:11:37;8.07;;;4.93;;
49858;SDS011;35756;52.346;13.622;2023-08-06T06:14:02;6.28;;;4.57;;
49858;SDS011;35756;52.346;13.622;2023-08-06T06:16:27;7.65;;;5.25;;
49858;SDS011;35756;52.346;13.622;2023-08-06T06:18:53;7.88;;;5.18;;
49858;SDS011;35756;52.346;13.622;2023-08-06T06:21:19;8.80;;;5.70;;
49858;SDS011;35756;52.346;13.622;2023-08-06T06:23:45;7.07;;;4.72;;
49858;SDS011;35756;52.346;13.622;2023-08-06T06:26:10;7.30;;;4.50;;
49858;SDS011;35756;52.346;13.622;2023-08-06T06:28:35;7.20;;;4.88;;
49858;SDS011;35756;52.346;13.622;2023-08-06T06:31:00;6.57;;;4.90;;
49858;SDS011;35756;52.346;13.622;2023-08-06T06:33:26;6.88;;;4.80;;
49858;SDS011;35756;52.346;13.622;2023-08-06T06:35:51;7.47;;;5.10;;
49858;SDS011;35756;52.346;13.622;2023-08-06T06:38:17;5.82;;;4.50;;
49858;SDS011;35756;52.346;13.622;2023-08-06T06:40:42;8.02;;;4.85;;
49858;SDS011;35756;52.346;13.622;2023-08-06T06:43:07;7.72;;;4.32;;
49858;SDS011;35756;52.346;13.622;2023-08-06T06:45:33;7.00;;;4.60;;
49858;SDS011;35756;52.346;13.622;2023-08-06T06:47:58;7.07;;;4.47;;
49858;SDS011;35756;52.346;13.622;2023-08-06T06:50:23;6.55;;;4.55;;
49858;SDS011;35756;52.346;13.622;2023-08-06T06:52:49;7.57;;;4.20;;
49858;SDS011;35756;52.346;13.622;2023-08-06T06:55:14;6.28;;;4.22;;
49858;SDS011;35756;52.346;13.622;2023-08-06T06:57:39;5.22;;;3.70;;
49858;SDS011;35756;52.346;13.622;2023-08-06T07:00:05;7.57;;;4.18;;
49858;SDS011;35756;52.346;13.622;2023-08-06T07:02:30;5.70;;;4.13;;
49858;SDS011;35756;52.346;13.622;2023-08-06T07:04:56;6.32;;;4.60;;
49858;SDS011;35756;52.346;13.622;2023-08-06T07:07:21;6.43;;;4.50;;
49858;SDS011;35756;52.346;13.622;2023-08-06T07:09:46;7.32;;;4.18;;
49858;SDS011;35756;52.346;13.622;2023-08-06T07:12:11;6.20;;;4.07;;
49858;SDS011;35756;52.346;13.622;2023-08-06T07:14:37;8.05;;;4.47;;
49858;SDS011;35756;52.346;13.622;2023-08-06T07:17:02;5.93;;;4.22;;
49858;SDS011;35756;52.346;13.622;2023-08-06T07:19:27;6.07;;;4.28;;
49858;SDS011;35756;52.346;13.622;2023-08-06T07:21:53;5.60;;;4.32;;
49858;SDS011;35756;52.346;13.622;2023-08-06T07:24:18;7.30;;;4.18;;
49858;SDS011;35756;52.346;13.622;2023-08-06T07:26:43;8.35;;;5.20;;
49858;SDS011;35756;52.346;13.622;2023-08-06T07:29:09;6.32;;;4.60;;
49858;SDS011;35756;52.346;13.622;2023-08-06T07:31:34;5.60;;;4.40;;
49858;SDS011;35756;52.346;13.622;2023-08-06T07:33:59;7.40;;;4.47;;
49858;SDS011;35756;52.346;13.622;2023-08-06T07:36:24;7.88;;;5.20;;
49858;SDS011;35756;52.346;13.622;2023-08-06T07:38:50;7.22;;;5.32;;
49858;SDS011;35756;52.346;13.622;2023-08-06T07:41:20;7.28;;;4.72;;
49858;SDS011;35756;52.346;13.622;2023-08-06T07:43:45;7.45;;;5.15;;
49858;SDS011;35756;52.346;13.622;2023-08-06T07:46:11;7.55;;;4.90;;
49858;SDS011;35756;52.346;13.622;2023-08-06T07:48:38;8.00;;;5.35;;
49858;SDS011;35756;52.346;13.622;2023-08-06T07:51:03;6.95;;;4.72;;
49858;SDS011;35756;52.346;13.622;2023-08-06T07:53:29;8.13;;;5.53;;
49858;SDS011;35756;52.346;13.622;2023-08-06T07:55:54;7.70;;;5.60;;
49858;SDS011;35756;52.346;13.622;2023-08-06T07:58:20;7.82;;;4.90;;
49858;SDS011;35756;52.346;13.622;2023-08-06T08:00:45;7.85;;;5.35;;
49858;SDS011;35756;52.346;13.622;2023-08-06T08:03:11;7.35;;;5.53;;
49858;SDS011;35756;52.346;13.622;2023-08-06T08:05:38;7.00;;;5.07;;
49858;SDS011;35756;52.346;13.622;2023-08-06T08:08:03;7.60;;;5.25;;
49858;SDS011;35756;52.346;13.622;2023-08-06T08:10:29;7.55;;;5.40;;
49858;SDS011;35756;52.346;13.622;2023-08-06T08:12:54;9.43;;;5.82;;
49858;SDS011;35756;52.346;13.622;2023-08-06T08:15:19;6.45;;;5.20;;
49858;SDS011;35756;52.346;13.622;2023-08-06T08:17:46;7.97;;;5.90;;
49858;SDS011;35756;52.346;13.622;2023-08-06T08:20:12;9.43;;;5.70;;
49858;SDS011;35756;52.346;13.622;2023-08-06T08:22:38;9.15;;;6.07;;
49858;SDS011;35756;52.346;13.622;2023-08-06T08:25:03;7.65;;;6.20;;
49858;SDS011;35756;52.346;13.622;2023-08-06T08:27:29;9.13;;;5.55;;
49858;SDS011;35756;52.346;13.622;2023-08-06T08:29:55;8.35;;;5.78;;
49858;SDS011;35756;52.346;13.622;2023-08-06T08:32:20;7.55;;;5.43;;
49858;SDS011;35756;52.346;13.622;2023-08-06T08:34:45;10.90;;;6.32;;
49858;SDS011;35756;52.346;13.622;2023-08-06T08:37:10;8.30;;;5.55;;
49858;SDS011;35756;52.346;13.622;2023-08-06T08:39:36;8.80;;;5.53;;
49858;SDS011;35756;52.346;13.622;2023-08-06T08:42:01;8.05;;;5.57;;
49858;SDS011;35756;52.346;13.622;2023-08-06T08:44:28;8.35;;;5.25;;
49858;SDS011;35756;52.346;13.622;2023-08-06T08:46:56;7.93;;;5.63;;
49858;SDS011;35756;52.346;13.622;2023-08-06T08:49:22;7.22;;;5.40;;
49858;SDS011;35756;52.346;13.622;2023-08-06T08:51:48;7.05;;;5.00;;
49858;SDS011;35756;52.346;13.622;2023-08-06T08:54:15;7.43;;;4.70;;
49858;SDS011;35756;52.346;13.622;2023-08-06T08:56:40;7.40;;;5.00;;
49858;SDS011;35756;52.346;13.622;2023-08-06T08:59:06;5.72;;;4.40;;
49858;SDS011;35756;52.346;13.622;2023-08-06T09:01:31;6.60;;;4.43;;
49858;SDS011;35756;52.346;13.622;2023-08-06T09:03:57;7.47;;;4.80;;
49858;SDS011;35756;52.346;13.622;2023-08-06T09:06:23;6.65;;;4.78;;
49858;SDS011;35756;52.346;13.622;2023-08-06T09:08:54;6.53;;;4.63;;
49858;SDS011;35756;52.346;13.622;2023-08-06T09:11:22;6.82;;;5.10;;
49858;SDS011;35756;52.346;13.622;2023-08-06T09:13:48;5.93;;;4.43;;
49858;SDS011;35756;52.346;13.622;2023-08-06T09:16:14;7.75;;;4.90;;
49858;SDS011;35756;52.346;13.622;2023-08-06T09:18:39;5.25;;;3.95;;
49858;SDS011;35756;52.346;13.622;2023-08-06T09:21:04;5.82;;;4.30;;
49858;SDS011;35756;52.346;13.622;2023-08-06T09:23:30;6.90;;;4.32;;
49858;SDS011;35756;52.346;13.622;2023-08-06T09:25:58;6.95;;;4.80;;
49858;SDS011;35756;52.346;13.622;2023-08-06T09:28:23;7.80;;;5.10;;
49858;SDS011;35756;52.346;13.622;2023-08-06T09:30:52;7.75;;;5.28;;
49858;SDS011;35756;52.346;13.622;2023-08-06T09:33:20;7.78;;;5.53;;
49858;SDS011;35756;52.346;13.622;2023-08-06T09:35:47;6.57;;;4.70;;
49858;SDS011;35756;52.346;13.622;2023-08-06T09:38:12;7.40;;;5.45;;
49858;SDS011;35756;52.346;13.622;2023-08-06T09:40:38;6.55;;;5.13;;
49858;SDS011;35756;52.346;13.622;2023-08-06T09:43:04;7.53;;;5.40;;
49858;SDS011;35756;52.346;13.622;2023-08-06T09:45:31;6.82;;;5.30;;
49858;SDS011;35756;52.346;13.622;2023-08-06T09:47:57;7.03;;;5.50;;
49858;SDS011;35756;52.346;13.622;2023-08-06T09:50:23;7.30;;;5.35;;
49858;SDS011;35756;52.346;13.622;2023-08-06T09:52:56;8.40;;;5.70;;
49858;SDS011;35756;52.346;13.622;2023-08-06T09:55:22;10.43;;;5.38;;
49858;SDS011;35756;52.346;13.622;2023-08-06T09:57:48;8.10;;;6.05;;
49858;SDS011;35756;52.346;13.622;2023-08-06T10:00:14;7.20;;;5.47;;
49858;SDS011;35756;52.346;13.622;2023-08-06T10:02:40;6.95;;;5.25;;
49858;SDS011;35756;52.346;13.622;2023-08-06T10:05:06;7.60;;;5.75;;
49858;SDS011;35756;52.346;13.622;2023-08-06T10:07:31;9.52;;;6.20;;
49858;SDS011;35756;52.346;13.622;2023-08-06T10:09:58;7.93;;;5.78;;
49858;SDS011;35756;52.346;13.622;2023-08-06T10:12:23;8.20;;;5.90;;
49858;SDS011;35756;52.346;13.622;2023-08-06T10:14:49;9.77;;;6.30;;
49858;SDS011;35756;52.346;13.622;2023-08-06T10:17:16;8.27;;;5.95;;
49858;SDS011;35756;52.346;13.622;2023-08-06T10:19:41;7.82;;;5.30;;
49858;SDS011;35756;52.346;13.622;2023-08-06T10:22:07;6.97;;;5.70;;
49858;SDS011;35756;52.346;13.622;2023-08-06T10:24:49;7.90;;;5.28;;
49858;SDS011;35756;52.346;13.622;2023-08-06T10:29:56;8.05;;;5.93;;
49858;SDS011;35756;52.346;13.622;2023-08-06T10:32:58;8.60;;;6.07;;
49858;SDS011;35756;52.346;13.622;2023-08-06T10:38:09;8.27;;;6.05;;
49858;SDS011;35756;52.346;13.622;2023-08-06T10:40:39;6.97;;;5.35;;
49858;SDS011;35756;52.346;13.622;2023-08-06T10:43:06;10.55;;;6.05;;
49858;SDS011;35756;52.346;13.622;2023-08-06T10:45:36;10.23;;;5.80;;
49858;SDS011;35756;52.346;13.622;2023-08-06T10:48:02;8.48;;;5.93;;
49858;SDS011;35756;52.346;13.622;2023-08-06T10:50:28;9.77;;;5.88;;
49858;SDS011;35756;52.346;13.622;2023-08-06T10:52:53;7.78;;;5.90;;
49858;SDS011;35756;52.346;13.622;2023-08-06T10:55:22;7.78;;;4.57;;
49858;SDS011;35756;52.346;13.622;2023-08-06T10:57:49;9.50;;;5.05;;
49858;SDS011;35756;52.346;13.622;2023-08-06T11:00:14;5.65;;;4.55;;
49858;SDS011;35756;52.346;13.622;2023-08-06T11:02:39;7.13;;;4.43;;
49858;SDS011;35756;52.346;13.622;2023-08-06T11:05:05;5.82;;;4.35;;
49858;SDS011;35756;52.346;13.622;2023-08-06T11:07:31;5.50;;;4.10;;
49858;SDS011;35756;52.346;13.622;2023-08-06T11:10:03;5.43;;;3.28;;
49858;SDS011;35756;52.346;13.622;2023-08-06T11:12:30;4.75;;;3.17;;
49858;SDS011;35756;52.346;13.622;2023-08-06T11:14:56;4.93;;;3.72;;
49858;SDS011;35756;52.346;13.622;2023-08-06T11:17:22;4.40;;;3.17;;
49858;SDS011;35756;52.346;13.622;2023-08-06T11:19:47;4.35;;;3.30;;
49858;SDS011;35756;52.346;13.622;2023-08-06T11:22:14;4.60;;;3.50;;
49858;SDS011;35756;52.346;13.622;2023-08-06T11:24:39;5.03;;;2.92;;
49858;SDS011;35756;52.346;13.622;2023-08-06T11:27:14;4.88;;;3.83;;
49858;SDS011;35756;52.346;13.622;2023-08-06T11:29:41;4.40;;;3.15;;
49858;SDS011;35756;52.346;13.622;2023-08-06T11:32:07;6.60;;;3.05;;
49858;SDS011;35756;52.346;13.622;2023-08-06T11:34:32;4.00;;;2.97;;
49858;SDS011;35756;52.346;13.622;2023-08-06T11:36:58;4.35;;;3.05;;
49858;SDS011;35756;52.346;13.622;2023-08-06T11:39:23;4.35;;;3.03;;
49858;SDS011;35756;52.346;13.622;2023-08-06T11:41:49;4.53;;;2.95;;
49858;SDS011;35756;52.346;13.622;2023-08-06T11:44:14;7.63;;;3.42;;
49858;SDS011;35756;52.346;13.622;2023-08-06T11:46:55;4.82;;;3.45;;
49858;SDS011;35756;52.346;13.622;2023-08-06T11:52:15;4.90;;;3.47;;
49858;SDS011;35756;52.346;13.622;2023-08-06T11:54:43;4.43;;;3.47;;
49858;SDS011;35756;52.346;13.622;2023-08-06T11:57:08;5.35;;;3.33;;
49858;SDS011;35756;52.346;13.622;2023-08-06T11:59:34;5.53;;;3.88;;
49858;SDS011;35756;52.346;13.622;2023-08-06T12:02:01;4.43;;;3.35;;
49858;SDS011;35756;52.346;13.622;2023-08-06T12:04:27;4.95;;;3.60;;
49858;SDS011;35756;52.346;13.622;2023-08-06T12:06:52;5.38;;;3.38;;
49858;SDS011;35756;52.346;13.622;2023-08-06T12:09:18;4.47;;;3.40;;
49858;SDS011;35756;52.346;13.622;2023-08-06T12:11:43;5.00;;;3.50;;
49858;SDS011;35756;52.346;13.622;2023-08-06T12:14:08;6.80;;;3.80;;
49858;SDS011;35756;52.346;13.622;2023-08-06T12:16:34;5.68;;;3.92;;
49858;SDS011;35756;52.346;13.622;2023-08-06T12:19:01;5.45;;;3.65;;
49858;SDS011;35756;52.346;13.622;2023-08-06T12:21:26;5.40;;;3.67;;
49858;SDS011;35756;52.346;13.622;2023-08-06T12:23:51;5.70;;;3.90;;
49858;SDS011;35756;52.346;13.622;2023-08-06T12:26:16;5.28;;;3.97;;
49858;SDS011;35756;52.346;13.622;2023-08-06T12:28:42;5.60;;;3.78;;
49858;SDS011;35756;52.346;13.622;2023-08-06T12:31:07;6.15;;;4.20;;
49858;SDS011;35756;52.346;13.622;2023-08-06T12:33:32;6.55;;;4.15;;
49858;SDS011;35756;52.346;13.622;2023-08-06T12:35:58;5.75;;;4.13;;
49858;SDS011;35756;52.346;13.622;2023-08-06T12:38:23;5.53;;;4.30;;
49858;SDS011;35756;52.346;13.622;2023-08-06T12:40:49;6.78;;;4.20;;
49858;SDS011;35756;52.346;13.622;2023-08-06T12:43:14;6.32;;;4.45;;
49858;SDS011;35756;52.346;13.622;2023-08-06T12:45:39;5.88;;;4.50;;
49858;SDS011;35756;52.346;13.622;2023-08-06T12:48:04;8.02;;;4.50;;
49858;SDS011;35756;52.346;13.622;2023-08-06T12:50:30;5.53;;;3.67;;
49858;SDS011;35756;52.346;13.622;2023-08-06T12:52:57;7.90;;;4.78;;
49858;SDS011;35756;52.346;13.622;2023-08-06T12:55:23;6.78;;;4.85;;
49858;SDS011;35756;52.346;13.622;2023-08-06T12:57:48;6.70;;;4.70;;
49858;SDS011;35756;52.346;13.622;2023-08-06T13:00:13;8.63;;;5.25;;
49858;SDS011;35756;52.346;13.622;2023-08-06T13:02:39;7.43;;;5.22;;
49858;SDS011;35756;52.346;13.622;2023-08-06T13:05:04;6.13;;;5.00;;
49858;SDS011;35756;52.346;13.622;2023-08-06T13:07:31;6.53;;;5.00;;
49858;SDS011;35756;52.346;13.622;2023-08-06T13:09:56;6.93;;;5.13;;
49858;SDS011;35756;52.346;13.622;2023-08-06T13:12:21;9.05;;;5.22;;
49858;SDS011;35756;52.346;13.622;2023-08-06T13:14:48;8.05;;;5.40;;
49858;SDS011;35756;52.346;13.622;2023-08-06T13:17:13;6.90;;;4.90;;
49858;SDS011;35756;52.346;13.622;2023-08-06T13:19:38;7.32;;;4.90;;
49858;SDS011;35756;52.346;13.622;2023-08-06T13:22:03;7.13;;;5.10;;
49858;SDS011;35756;52.346;13.622;2023-08-06T13:24:30;7.78;;;4.97;;
49858;SDS011;35756;52.346;13.622;2023-08-06T13:26:56;6.78;;;4.80;;
49858;SDS011;35756;52.346;13.622;2023-08-06T13:29:21;6.85;;;5.00;;
49858;SDS011;35756;52.346;13.622;2023-08-06T13:31:46;5.65;;;4.05;;
49858;SDS011;35756;52.346;13.622;2023-08-06T13:34:12;5.68;;;3.97;;
49858;SDS011;35756;52.346;13.622;2023-08-06T13:36:37;5.82;;;4.10;;
49858;SDS011;35756;52.346;13.622;2023-08-06T13:39:02;5.80;;;3.58;;
49858;SDS011;35756;52.346;13.622;2023-08-06T13:41:28;5.03;;;3.90;;
49858;SDS011;35756;52.346;13.622;2023-08-06T13:43:53;4.22;;;3.28;;
49858;SDS011;35756;52.346;13.622;2023-08-06T13:46:19;5.95;;;3.58;;
49858;SDS011;35756;52.346;13.622;2023-08-06T13:48:45;5.03;;;3.22;;
49858;SDS011;35756;52.346;13.622;2023-08-06T13:51:11;4.82;;;3.35;;
49858;SDS011;35756;52.346;13.622;2023-08-06T13:53:37;5.35;;;3.38;;
49858;SDS011;35756;52.346;13.622;2023-08-06T13:56:02;7.50;;;3.28;;
49858;SDS011;35756;52.346;13.622;2023-08-06T13:58:28;5.00;;;3.08;;
49858;SDS011;35756;52.346;13.622;2023-08-06T14:00:54;3.95;;;3.10;;
49858;SDS011;35756;52.346;13.622;2023-08-06T14:03:19;5.57;;;3.10;;
49858;SDS011;35756;52.346;13.622;2023-08-06T14:05:45;4.72;;;3.30;;
49858;SDS011;35756;52.346;13.622;2023-08-06T14:08:10;4.35;;;2.80;;
49858;SDS011;35756;52.346;13.622;2023-08-06T14:10:35;3.80;;;2.58;;
49858;SDS011;35756;52.346;13.622;2023-08-06T14:13:01;4.82;;;3.08;;
49858;SDS011;35756;52.346;13.622;2023-08-06T14:15:26;6.22;;;2.90;;
49858;SDS011;35756;52.346;13.622;2023-08-06T14:17:51;4.28;;;3.00;;
49858;SDS011;35756;52.346;13.622;2023-08-06T14:20:17;4.10;;;2.80;;
49858;SDS011;35756;52.346;13.622;2023-08-06T14:22:42;3.85;;;2.65;;
49858;SDS011;35756;52.346;13.622;2023-08-06T14:25:07;4.15;;;3.13;;
49858;SDS011;35756;52.346;13.622;2023-08-06T14:27:33;4.55;;;2.85;;
49858;SDS011;35756;52.346;13.622;2023-08-06T14:29:58;3.55;;;2.83;;
49858;SDS011;35756;52.346;13.622;2023-08-06T14:32:23;5.47;;;3.22;;
49858;SDS011;35756;52.346;13.622;2023-08-06T14:34:49;5.20;;;2.80;;
49858;SDS011;35756;52.346;13.622;2023-08-06T14:37:14;4.15;;;2.88;;